Pagrindinis puslapis
METAR-TAF:

METAR-TAF

Oro uostai :

Utti, Suomija

platuma: 60-54N, ilguma: 026-56E, Aukštis: 100 m

Dabartinis oras

Ataskaita buvo paskelbta 18 minutes, ne 03:20 UTC
Vėjas 7 kt iš Šiaurės Rytų, svyruoja nuo Šiaurės/Šiaurės Rytų ir Rytų
Temperatūra -4°C
Drėgmė 63%
Slėgis 1011 hPa
Matomumas 10 km arba daugiau
Apsiniaukę ne aukštis 2800 ft

METAR: EFUT 190320Z 05007KT 020V080 9999 OVC028 M04/M10 Q1011

Laikas: 06:38 (03:38 UTC)

Prognozė

Ataskaita buvo paskelbta 1 valandą ir 7 minutes, ne 02:31 UTC
Prognozė galioja nuo 19 metu 03 UTC su 19 metu 12 UTC
Vėjas 8 kt iš Šiaurės Rytų
Matomumas 10 km arba daugiau
Su prošvaistėmis ne aukštis 3000 ft

TAF: EFUT 190231Z 1903/1912 05008KT 9999 BKN030

Orai ataskaitas ir orų prognozės (METAR, TAF).

turimą stotys yra geltonos ir raudonos taškus žemėlapyje.

Perkelti pele per norėdami pamatyti stoties vardą.

Tada spustelėkite, norėdami matyti oro stebėjimo ir prognozės.

Norėdami pakeisti žemėlapį: spustelėkite ant žalios mygtukų su juodo kryžiaus žemyn,; žalią mygtuką su brūkšneliu, jei norite nutolinti; arba žalių rodyklių gretimoms žemėlapius.


METAR-TAF: